sensor_id;sensor_type;location;lat;lon;timestamp;pressure;altitude;pressure_sealevel;temperature;humidity
77706;BME280;66874;45.274;5.880;2023-02-19T00:01:11;100119.41;;;6.03;63.02
77706;BME280;66874;45.274;5.880;2023-02-19T00:03:37;100117.66;;;6.01;63.02
77706;BME280;66874;45.274;5.880;2023-02-19T00:06:07;100116.81;;;6.02;63.18
77706;BME280;66874;45.274;5.880;2023-02-19T00:08:33;100114.22;;;6.03;63.13
77706;BME280;66874;45.274;5.880;2023-02-19T00:11:07;100112.47;;;6.01;63.05
77706;BME280;66874;45.274;5.880;2023-02-19T00:13:38;100117.63;;;5.98;63.19
77706;BME280;66874;45.274;5.880;2023-02-19T00:16:08;100123.69;;;5.98;63.28
77706;BME280;66874;45.274;5.880;2023-02-19T00:18:34;100120.16;;;5.95;62.96
77706;BME280;66874;45.274;5.880;2023-02-19T00:21:00;100126.06;;;5.87;63.59
77706;BME280;66874;45.274;5.880;2023-02-19T00:23:26;100124.25;;;5.83;63.79
77706;BME280;66874;45.274;5.880;2023-02-19T00:25:52;100118.19;;;5.81;63.86
77706;BME280;66874;45.274;5.880;2023-02-19T00:28:18;100119.91;;;5.82;63.96
77706;BME280;66874;45.274;5.880;2023-02-19T03:00:22;100090.50;;;4.08;66.43
77706;BME280;66874;45.274;5.880;2023-02-19T03:02:48;100086.13;;;4.05;66.50
77706;BME280;66874;45.274;5.880;2023-02-19T03:08:28;100080.97;;;4.07;66.75
77706;BME280;66874;45.274;5.880;2023-02-19T03:11:04;100070.47;;;4.01;66.88
77706;BME280;66874;45.274;5.880;2023-02-19T03:13:56;100073.84;;;3.98;66.92
77706;BME280;66874;45.274;5.880;2023-02-19T03:17:01;100073.84;;;3.97;66.68
77706;BME280;66874;45.274;5.880;2023-02-19T03:19:50;100064.25;;;3.92;66.83
77706;BME280;66874;45.274;5.880;2023-02-19T03:22:23;100065.88;;;3.89;66.99
77706;BME280;66874;45.274;5.880;2023-02-19T03:24:55;100047.72;;;3.87;67.09
77706;BME280;66874;45.274;5.880;2023-02-19T03:27:43;100049.31;;;3.81;66.92
77706;BME280;66874;45.274;5.880;2023-02-19T06:30:47;100094.66;;;2.41;70.52
77706;BME280;66874;45.274;5.880;2023-02-19T06:33:13;100091.03;;;2.35;70.56
77706;BME280;66874;45.274;5.880;2023-02-19T06:35:38;100103.75;;;2.29;70.57
77706;BME280;66874;45.274;5.880;2023-02-19T06:38:04;100101.13;;;2.27;70.86
77706;BME280;66874;45.274;5.880;2023-02-19T06:40:29;100109.63;;;2.23;70.75
77706;BME280;66874;45.274;5.880;2023-02-19T06:42:54;100111.25;;;2.21;70.71
77706;BME280;66874;45.274;5.880;2023-02-19T06:45:20;100117.25;;;2.20;70.69
77706;BME280;66874;45.274;5.880;2023-02-19T06:47:45;100116.28;;;2.16;70.96
77706;BME280;66874;45.274;5.880;2023-02-19T06:50:11;100116.06;;;2.10;70.66
77706;BME280;66874;45.274;5.880;2023-02-19T06:52:36;100120.38;;;2.10;70.86
77706;BME280;66874;45.274;5.880;2023-02-19T06:55:01;100118.00;;;2.16;70.89
77706;BME280;66874;45.274;5.880;2023-02-19T06:57:27;100119.09;;;2.24;71.26
77706;BME280;66874;45.274;5.880;2023-02-19T06:59:52;100123.44;;;2.25;70.96
77706;BME280;66874;45.274;5.880;2023-02-19T07:02:18;100122.31;;;2.17;70.99
77706;BME280;66874;45.274;5.880;2023-02-19T07:04:43;100117.03;;;2.12;71.07
77706;BME280;66874;45.274;5.880;2023-02-19T07:07:11;100119.59;;;2.12;71.10
77706;BME280;66874;45.274;5.880;2023-02-19T07:09:37;100104.91;;;2.11;71.01
77706;BME280;66874;45.274;5.880;2023-02-19T07:12:02;100103.13;;;2.09;70.95
77706;BME280;66874;45.274;5.880;2023-02-19T07:14:28;100099.59;;;2.05;71.17
77706;BME280;66874;45.274;5.880;2023-02-19T07:16:54;100104.69;;;2.04;71.24
77706;BME280;66874;45.274;5.880;2023-02-19T07:19:19;100103.03;;;2.06;71.27
77706;BME280;66874;45.274;5.880;2023-02-19T07:21:44;100104.13;;;2.12;71.34
77706;BME280;66874;45.274;5.880;2023-02-19T07:24:10;100100.94;;;2.21;71.32
77706;BME280;66874;45.274;5.880;2023-02-19T07:26:35;100106.31;;;2.27;71.58
77706;BME280;66874;45.274;5.880;2023-02-19T07:29:01;100114.22;;;2.33;71.62
77706;BME280;66874;45.274;5.880;2023-02-19T07:31:27;100103.25;;;2.40;71.33
77706;BME280;66874;45.274;5.880;2023-02-19T07:33:53;100112.09;;;2.49;71.33
77706;BME280;66874;45.274;5.880;2023-02-19T07:36:20;100110.59;;;2.55;71.51
77706;BME280;66874;45.274;5.880;2023-02-19T07:38:46;100115.09;;;2.62;71.26
77706;BME280;66874;45.274;5.880;2023-02-19T07:41:12;100116.13;;;2.69;71.31
77706;BME280;66874;45.274;5.880;2023-02-19T07:43:37;100113.66;;;2.72;71.12
77706;BME280;66874;45.274;5.880;2023-02-19T07:46:12;100119.09;;;2.81;71.21
77706;BME280;66874;45.274;5.880;2023-02-19T07:48:38;100123.63;;;2.88;71.20
77706;BME280;66874;45.274;5.880;2023-02-19T07:51:06;100110.84;;;2.94;71.30
77706;BME280;66874;45.274;5.880;2023-02-19T07:53:33;100114.53;;;3.03;71.19
77706;BME280;66874;45.274;5.880;2023-02-19T07:56:00;100117.44;;;3.15;71.08
77706;BME280;66874;45.274;5.880;2023-02-19T07:58:27;100119.41;;;3.24;71.28
77706;BME280;66874;45.274;5.880;2023-02-19T08:00:52;100122.34;;;3.36;71.01
77706;BME280;66874;45.274;5.880;2023-02-19T08:03:17;100121.88;;;3.51;71.00
77706;BME280;66874;45.274;5.880;2023-02-19T08:05:43;100124.75;;;3.63;70.91
77706;BME280;66874;45.274;5.880;2023-02-19T08:08:11;100118.09;;;3.73;70.87
77706;BME280;66874;45.274;5.880;2023-02-19T08:10:37;100120.94;;;3.83;70.79
77706;BME280;66874;45.274;5.880;2023-02-19T08:13:21;100121.31;;;3.97;70.75
77706;BME280;66874;45.274;5.880;2023-02-19T08:18:31;100126.94;;;4.17;70.44
77706;BME280;66874;45.274;5.880;2023-02-19T08:20:58;100130.66;;;4.27;70.50
77706;BME280;66874;45.274;5.880;2023-02-19T08:23:24;100133.41;;;4.34;70.37
77706;BME280;66874;45.274;5.880;2023-02-19T08:25:51;100123.28;;;4.45;70.29
77706;BME280;66874;45.274;5.880;2023-02-19T08:28:18;100131.28;;;4.54;70.40
77706;BME280;66874;45.274;5.880;2023-02-19T08:30:45;100144.41;;;4.63;70.27
77706;BME280;66874;45.274;5.880;2023-02-19T08:33:15;100152.34;;;4.71;70.28
77706;BME280;66874;45.274;5.880;2023-02-19T08:35:41;100157.72;;;4.80;70.27
77706;BME280;66874;45.274;5.880;2023-02-19T08:38:08;100172.63;;;4.89;70.15
77706;BME280;66874;45.274;5.880;2023-02-19T08:40:36;100175.38;;;4.97;70.39
77706;BME280;66874;45.274;5.880;2023-02-19T08:43:10;100178.13;;;5.04;70.24
77706;BME280;66874;45.274;5.880;2023-02-19T08:45:37;100190.50;;;5.18;70.18
77706;BME280;66874;45.274;5.880;2023-02-19T08:48:03;100187.25;;;5.28;70.06
77706;BME280;66874;45.274;5.880;2023-02-19T08:50:29;100190.03;;;5.37;70.09
77706;BME280;66874;45.274;5.880;2023-02-19T08:52:54;100183.34;;;5.48;69.87
77706;BME280;66874;45.274;5.880;2023-02-19T08:55:20;100187.00;;;5.58;69.96
77706;BME280;66874;45.274;5.880;2023-02-19T08:57:45;100176.75;;;5.66;69.79
77706;BME280;66874;45.274;5.880;2023-02-19T09:00:12;100180.38;;;5.75;69.91
77706;BME280;66874;45.274;5.880;2023-02-19T09:02:37;100177.13;;;5.87;69.79
77706;BME280;66874;45.274;5.880;2023-02-19T09:05:03;100182.59;;;6.01;69.37
77706;BME280;66874;45.274;5.880;2023-02-19T09:07:30;100176.06;;;6.23;69.52
77706;BME280;66874;45.274;5.880;2023-02-19T09:09:56;100167.00;;;6.54;69.52
77706;BME280;66874;45.274;5.880;2023-02-19T09:12:23;100166.47;;;6.78;68.95
77706;BME280;66874;45.274;5.880;2023-02-19T09:14:49;100161.63;;;7.05;68.69
77706;BME280;66874;45.274;5.880;2023-02-19T09:17:14;100158.50;;;7.37;68.39
77706;BME280;66874;45.274;5.880;2023-02-19T09:19:40;100166.66;;;7.66;68.00
77706;BME280;66874;45.274;5.880;2023-02-19T09:22:05;100159.91;;;7.87;67.43
77706;BME280;66874;45.274;5.880;2023-02-19T09:24:31;100163.50;;;8.02;67.22
77706;BME280;66874;45.274;5.880;2023-02-19T09:26:56;100165.34;;;8.11;67.19
77706;BME280;66874;45.274;5.880;2023-02-19T09:29:26;100161.13;;;8.28;66.93
77706;BME280;66874;45.274;5.880;2023-02-19T09:31:56;100153.44;;;8.45;66.78
77706;BME280;66874;45.274;5.880;2023-02-19T09:34:23;100148.31;;;8.54;66.62
77706;BME280;66874;45.274;5.880;2023-02-19T09:36:49;100152.69;;;8.65;66.32
77706;BME280;66874;45.274;5.880;2023-02-19T09:39:15;100154.56;;;8.81;66.25
77706;BME280;66874;45.274;5.880;2023-02-19T09:41:49;100146.84;;;9.07;65.89
77706;BME280;66874;45.274;5.880;2023-02-19T09:44:34;100146.09;;;9.40;65.54
77706;BME280;66874;45.274;5.880;2023-02-19T09:47:02;100146.13;;;9.60;65.24
77706;BME280;66874;45.274;5.880;2023-02-19T09:49:35;100148.81;;;9.85;65.03
77706;BME280;66874;45.274;5.880;2023-02-19T09:52:31;100161.00;;;10.13;64.46
77706;BME280;66874;45.274;5.880;2023-02-19T09:55:13;100153.16;;;10.16;64.11
77706;BME280;66874;45.274;5.880;2023-02-19T09:57:39;100152.28;;;10.14;64.09
77706;BME280;66874;45.274;5.880;2023-02-19T10:02:37;100141.88;;;10.26;63.75
77706;BME280;66874;45.274;5.880;2023-02-19T10:05:10;100148.81;;;10.40;63.63
77706;BME280;66874;45.274;5.880;2023-02-19T10:07:41;100132.22;;;10.53;63.48
77706;BME280;66874;45.274;5.880;2023-02-19T10:12:44;100118.16;;;10.97;62.62
77706;BME280;66874;45.274;5.880;2023-02-19T10:17:46;100117.19;;;11.22;61.93
77706;BME280;66874;45.274;5.880;2023-02-19T10:20:18;100116.22;;;11.39;61.22
77706;BME280;66874;45.274;5.880;2023-02-19T10:22:47;100109.97;;;11.57;60.94
77706;BME280;66874;45.274;5.880;2023-02-19T10:25:14;100104.53;;;11.87;60.46
77706;BME280;66874;45.274;5.880;2023-02-19T10:27:40;100103.56;;;12.02;59.52
77706;BME280;66874;45.274;5.880;2023-02-19T10:30:15;100096.50;;;12.12;59.68
77706;BME280;66874;45.274;5.880;2023-02-19T10:32:57;100086.56;;;12.43;59.10
77706;BME280;66874;45.274;5.880;2023-02-19T10:35:23;100083.50;;;12.80;58.53
77706;BME280;66874;45.274;5.880;2023-02-19T10:37:49;100085.66;;;13.19;57.60
77706;BME280;66874;45.274;5.880;2023-02-19T10:40:18;100072.97;;;13.51;57.02
77706;BME280;66874;45.274;5.880;2023-02-19T10:42:46;100076.06;;;13.76;56.11
77706;BME280;66874;45.274;5.880;2023-02-19T10:45:22;100064.09;;;14.12;55.35
77706;BME280;66874;45.274;5.880;2023-02-19T10:47:48;100070.44;;;14.50;54.82
77706;BME280;66874;45.274;5.880;2023-02-19T10:50:24;100066.16;;;14.41;53.58
77706;BME280;66874;45.274;5.880;2023-02-19T10:52:52;100048.94;;;14.71;53.42
77706;BME280;66874;45.274;5.880;2023-02-19T10:55:32;100053.69;;;14.97;52.54
77706;BME280;66874;45.274;5.880;2023-02-19T10:58:19;100057.91;;;15.04;52.22
77706;BME280;66874;45.274;5.880;2023-02-19T11:00:45;100057.19;;;15.36;51.86
77706;BME280;66874;45.274;5.880;2023-02-19T11:03:20;100052.94;;;15.70;51.44
77706;BME280;66874;45.274;5.880;2023-02-19T11:06:00;100050.84;;;16.18;50.87
77706;BME280;66874;45.274;5.880;2023-02-19T11:08:27;100058.97;;;16.43;50.37
77706;BME280;66874;45.274;5.880;2023-02-19T11:10:53;100057.97;;;16.47;49.12
77706;BME280;66874;45.274;5.880;2023-02-19T11:13:28;100056.41;;;16.40;49.18
77706;BME280;66874;45.274;5.880;2023-02-19T11:15:56;100058.47;;;16.60;49.08
77706;BME280;66874;45.274;5.880;2023-02-19T11:18:28;100060.28;;;16.91;48.60
77706;BME280;66874;45.274;5.880;2023-02-19T11:20:56;100052.88;;;17.03;47.67
77706;BME280;66874;45.274;5.880;2023-02-19T11:23:31;100047.91;;;17.22;48.03
77706;BME280;66874;45.274;5.880;2023-02-19T11:26:01;100042.91;;;17.68;47.34
77706;BME280;66874;45.274;5.880;2023-02-19T11:28:40;100039.09;;;18.04;46.83
77706;BME280;66874;45.274;5.880;2023-02-19T11:33:46;100035.41;;;18.09;45.58
77706;BME280;66874;45.274;5.880;2023-02-19T11:38:41;100033.13;;;17.98;45.88
77706;BME280;66874;45.274;5.880;2023-02-19T11:52:37;100012.41;;;19.73;43.21
77706;BME280;66874;45.274;5.880;2023-02-19T11:57:44;99992.03;;;20.56;43.08
77706;BME280;66874;45.274;5.880;2023-02-19T12:00:24;99988.63;;;20.72;42.21
77706;BME280;66874;45.274;5.880;2023-02-19T12:17:29;99947.44;;;23.67;37.81
77706;BME280;66874;45.274;5.880;2023-02-19T12:22:48;99946.97;;;24.19;35.70
77706;BME280;66874;45.274;5.880;2023-02-19T12:38:42;99917.47;;;25.59;33.65
77706;BME280;66874;45.274;5.880;2023-02-19T12:41:28;99909.84;;;26.18;32.93
77706;BME280;66874;45.274;5.880;2023-02-19T12:43:59;99910.78;;;26.56;32.93
77706;BME280;66874;45.274;5.880;2023-02-19T12:47:12;99905.59;;;26.78;32.02
77706;BME280;66874;45.274;5.880;2023-02-19T12:49:26;99898.13;;;26.45;32.27
77706;BME280;66874;45.274;5.880;2023-02-19T12:54:41;99897.38;;;25.79;32.79
77706;BME280;66874;45.274;5.880;2023-02-19T12:57:28;99885.50;;;25.43;32.88
77706;BME280;66874;45.274;5.880;2023-02-19T12:59:59;99888.75;;;25.61;32.99
77706;BME280;66874;45.274;5.880;2023-02-19T13:02:29;99882.91;;;26.20;32.09
77706;BME280;66874;45.274;5.880;2023-02-19T13:05:05;99872.38;;;26.92;31.18
77706;BME280;66874;45.274;5.880;2023-02-19T13:07:46;99871.22;;;27.31;30.94
77706;BME280;66874;45.274;5.880;2023-02-19T13:12:53;99872.31;;;27.64;29.81
77706;BME280;66874;45.274;5.880;2023-02-19T13:17:55;99860.69;;;27.98;29.20
77706;BME280;66874;45.274;5.880;2023-02-19T13:25:47;99849.81;;;28.56;27.99
77706;BME280;66874;45.274;5.880;2023-02-19T13:28:32;99838.31;;;28.86;27.96
77706;BME280;66874;45.274;5.880;2023-02-19T13:33:45;99828.28;;;28.88;27.27
77706;BME280;66874;45.274;5.880;2023-02-19T13:36:36;99826.50;;;28.66;28.04
77706;BME280;66874;45.274;5.880;2023-02-19T13:39:05;99823.19;;;28.74;27.73
77706;BME280;66874;45.274;5.880;2023-02-19T13:41:39;99826.91;;;29.05;27.43
77706;BME280;66874;45.274;5.880;2023-02-19T13:44:12;99821.41;;;29.28;27.11
77706;BME280;66874;45.274;5.880;2023-02-19T13:46:42;99823.84;;;29.52;26.47
77706;BME280;66874;45.274;5.880;2023-02-19T13:51:57;99815.38;;;29.35;26.54
77706;BME280;66874;45.274;5.880;2023-02-19T13:59:56;99811.03;;;28.91;26.64
77706;BME280;66874;45.274;5.880;2023-02-19T14:04:58;99806.00;;;28.43;26.52
77706;BME280;66874;45.274;5.880;2023-02-19T14:09:55;99815.81;;;28.21;26.54
77706;BME280;66874;45.274;5.880;2023-02-19T14:12:31;99810.03;;;27.81;26.47
77706;BME280;66874;45.274;5.880;2023-02-19T14:17:48;99809.31;;;27.09;27.18
77706;BME280;66874;45.274;5.880;2023-02-19T14:22:46;99801.69;;;26.67;27.45
77706;BME280;66874;45.274;5.880;2023-02-19T14:28:03;99809.88;;;25.65;28.84
77706;BME280;66874;45.274;5.880;2023-02-19T14:30:32;99797.88;;;25.71;28.96
77706;BME280;66874;45.274;5.880;2023-02-19T14:33:02;99796.16;;;25.57;29.06
77706;BME280;66874;45.274;5.880;2023-02-19T14:35:36;99803.13;;;25.34;29.67
77706;BME280;66874;45.274;5.880;2023-02-19T14:38:04;99800.44;;;25.47;29.66
77706;BME280;66874;45.274;5.880;2023-02-19T14:40:38;99788.13;;;25.70;29.15
77706;BME280;66874;45.274;5.880;2023-02-19T14:43:10;99781.88;;;25.44;29.70
77706;BME280;66874;45.274;5.880;2023-02-19T14:45:42;99779.22;;;25.31;29.41
77706;BME280;66874;45.274;5.880;2023-02-19T14:48:30;99783.47;;;24.54;30.38
77706;BME280;66874;45.274;5.880;2023-02-19T14:51:02;99777.03;;;24.29;30.39
77706;BME280;66874;45.274;5.880;2023-02-19T14:53:29;99769.09;;;24.13;31.40
77706;BME280;66874;45.274;5.880;2023-02-19T14:55:57;99762.19;;;24.52;30.86
77706;BME280;66874;45.274;5.880;2023-02-19T14:58:24;99758.75;;;24.90;30.94
77706;BME280;66874;45.274;5.880;2023-02-19T15:00:52;99762.06;;;25.21;30.32
77706;BME280;66874;45.274;5.880;2023-02-19T15:03:27;99752.44;;;25.31;30.27
77706;BME280;66874;45.274;5.880;2023-02-19T15:06:06;99758.84;;;25.28;30.16
77706;BME280;66874;45.274;5.880;2023-02-19T15:08:47;99753.81;;;25.37;30.46
77706;BME280;66874;45.274;5.880;2023-02-19T15:11:17;99755.53;;;25.63;30.03
77706;BME280;66874;45.274;5.880;2023-02-19T15:13:50;99752.88;;;25.89;29.68
77706;BME280;66874;45.274;5.880;2023-02-19T15:16:18;99751.69;;;25.93;29.68
77706;BME280;66874;45.274;5.880;2023-02-19T15:18:45;99760.38;;;25.84;29.56
77706;BME280;66874;45.274;5.880;2023-02-19T15:21:27;99762.63;;;25.64;30.08
77706;BME280;66874;45.274;5.880;2023-02-19T15:24:14;99768.50;;;25.44;30.17
77706;BME280;66874;45.274;5.880;2023-02-19T15:26:42;99773.56;;;25.48;30.22
77706;BME280;66874;45.274;5.880;2023-02-19T15:29:14;99773.75;;;25.32;30.26
77706;BME280;66874;45.274;5.880;2023-02-19T15:31:51;99767.72;;;25.16;30.24
77706;BME280;66874;45.274;5.880;2023-02-19T15:34:22;99768.34;;;25.07;30.74
77706;BME280;66874;45.274;5.880;2023-02-19T15:36:51;99758.47;;;25.07;30.58
77706;BME280;66874;45.274;5.880;2023-02-19T15:39:24;99762.06;;;24.94;30.82
77706;BME280;66874;45.274;5.880;2023-02-19T15:41:54;99753.72;;;24.58;30.87
77706;BME280;66874;45.274;5.880;2023-02-19T15:47:04;99757.03;;;24.35;31.52
77706;BME280;66874;45.274;5.880;2023-02-19T15:49:41;99760.81;;;24.04;31.87
77706;BME280;66874;45.274;5.880;2023-02-19T15:52:09;99759.78;;;23.92;32.19
77706;BME280;66874;45.274;5.880;2023-02-19T15:55:06;99758.53;;;23.98;31.96
77706;BME280;66874;45.274;5.880;2023-02-19T15:57:36;99767.09;;;24.17;31.94
77706;BME280;66874;45.274;5.880;2023-02-19T16:02:36;99763.97;;;23.53;32.33
77706;BME280;66874;45.274;5.880;2023-02-19T16:05:10;99771.63;;;23.15;32.52
77706;BME280;66874;45.274;5.880;2023-02-19T16:07:36;99779.69;;;22.83;33.02
77706;BME280;66874;45.274;5.880;2023-02-19T16:12:40;99776.78;;;22.40;33.88
77706;BME280;66874;45.274;5.880;2023-02-19T16:15:13;99780.09;;;22.30;33.88
77706;BME280;66874;45.274;5.880;2023-02-19T16:17:42;99782.75;;;22.14;34.07
77706;BME280;66874;45.274;5.880;2023-02-19T16:20:27;99777.06;;;22.20;34.46
77706;BME280;66874;45.274;5.880;2023-02-19T16:23:10;99780.56;;;21.72;34.54
77706;BME280;66874;45.274;5.880;2023-02-19T16:25:40;99777.81;;;21.23;35.14
77706;BME280;66874;45.274;5.880;2023-02-19T16:28:30;99777.28;;;20.43;35.78
77706;BME280;66874;45.274;5.880;2023-02-19T16:31:01;99785.56;;;19.40;37.64
77706;BME280;66874;45.274;5.880;2023-02-19T16:33:44;99789.25;;;18.29;39.26
77706;BME280;66874;45.274;5.880;2023-02-19T16:46:59;99800.53;;;16.87;42.24
77706;BME280;66874;45.274;5.880;2023-02-19T16:49:27;99795.41;;;16.82;42.40
77706;BME280;66874;45.274;5.880;2023-02-19T16:51:52;99812.34;;;16.75;42.59
77706;BME280;66874;45.274;5.880;2023-02-19T16:54:19;99827.56;;;16.67;42.62
77706;BME280;66874;45.274;5.880;2023-02-19T16:56:44;99830.53;;;16.56;42.98
77706;BME280;66874;45.274;5.880;2023-02-19T16:59:10;99835.00;;;16.26;43.20
77706;BME280;66874;45.274;5.880;2023-02-19T17:01:35;99836.69;;;15.99;44.07
77706;BME280;66874;45.274;5.880;2023-02-19T17:04:03;99841.16;;;15.65;44.98
77706;BME280;66874;45.274;5.880;2023-02-19T17:06:30;99842.00;;;15.32;45.79
77706;BME280;66874;45.274;5.880;2023-02-19T17:08:57;99846.19;;;15.07;46.08
77706;BME280;66874;45.274;5.880;2023-02-19T17:11:23;99845.78;;;14.86;46.61
77706;BME280;66874;45.274;5.880;2023-02-19T17:13:48;99848.91;;;14.67;47.38
77706;BME280;66874;45.274;5.880;2023-02-19T17:16:23;99850.56;;;14.30;48.31
77706;BME280;66874;45.274;5.880;2023-02-19T17:18:49;99856.94;;;14.20;48.59
77706;BME280;66874;45.274;5.880;2023-02-19T17:21:27;99866.53;;;14.21;48.35
77706;BME280;66874;45.274;5.880;2023-02-19T17:23:53;99876.38;;;14.13;48.48
77706;BME280;66874;45.274;5.880;2023-02-19T17:26:26;99875.44;;;14.15;48.33
77706;BME280;66874;45.274;5.880;2023-02-19T17:28:52;99888.69;;;14.11;48.55
77706;BME280;66874;45.274;5.880;2023-02-19T17:31:19;99886.44;;;13.91;48.78
77706;BME280;66874;45.274;5.880;2023-02-19T17:33:44;99890.38;;;13.70;49.19
77706;BME280;66874;45.274;5.880;2023-02-19T17:36:28;99900.38;;;13.50;49.49
77706;BME280;66874;45.274;5.880;2023-02-19T17:38:56;99898.72;;;13.44;49.26
77706;BME280;66874;45.274;5.880;2023-02-19T17:41:22;99908.28;;;13.48;49.41
77706;BME280;66874;45.274;5.880;2023-02-19T17:43:47;99916.13;;;13.51;49.35
77706;BME280;66874;45.274;5.880;2023-02-19T17:46:20;99916.97;;;13.52;49.47
77706;BME280;66874;45.274;5.880;2023-02-19T17:48:46;99920.72;;;13.38;49.60
77706;BME280;66874;45.274;5.880;2023-02-19T17:51:12;99937.56;;;13.27;49.63
77706;BME280;66874;45.274;5.880;2023-02-19T17:53:37;99940.31;;;13.16;49.98
77706;BME280;66874;45.274;5.880;2023-02-19T17:56:03;99935.97;;;13.15;50.01
77706;BME280;66874;45.274;5.880;2023-02-19T17:58:28;99945.88;;;12.94;51.05
77706;BME280;66874;45.274;5.880;2023-02-19T18:00:54;99960.31;;;12.66;51.73
77706;BME280;66874;45.274;5.880;2023-02-19T18:03:20;99969.09;;;12.63;51.52
77706;BME280;66874;45.274;5.880;2023-02-19T18:05:45;99971.81;;;12.57;51.26
77706;BME280;66874;45.274;5.880;2023-02-19T18:08:10;99977.91;;;12.56;51.54
77706;BME280;66874;45.274;5.880;2023-02-19T18:10:36;99976.22;;;12.54;51.83
77706;BME280;66874;45.274;5.880;2023-02-19T18:13:01;99977.09;;;12.54;51.77
77706;BME280;66874;45.274;5.880;2023-02-19T18:15:27;99978.97;;;12.43;51.48
77706;BME280;66874;45.274;5.880;2023-02-19T18:17:53;99980.13;;;12.17;51.97
77706;BME280;66874;45.274;5.880;2023-02-19T18:20:21;99991.69;;;12.01;52.43
77706;BME280;66874;45.274;5.880;2023-02-19T18:22:47;99997.03;;;11.87;52.33
77706;BME280;66874;45.274;5.880;2023-02-19T18:25:14;99998.06;;;11.72;52.79
77706;BME280;66874;45.274;5.880;2023-02-19T18:27:39;99996.38;;;11.62;53.00
77706;BME280;66874;45.274;5.880;2023-02-19T18:30:05;100001.72;;;11.50;52.99
77706;BME280;66874;45.274;5.880;2023-02-19T18:32:31;100007.97;;;11.32;53.38
77706;BME280;66874;45.274;5.880;2023-02-19T18:34:57;100002.81;;;11.23;53.50
77706;BME280;66874;45.274;5.880;2023-02-19T18:37:26;100004.56;;;11.22;53.56
77706;BME280;66874;45.274;5.880;2023-02-19T18:39:52;100008.97;;;11.16;53.56
77706;BME280;66874;45.274;5.880;2023-02-19T18:42:17;100007.31;;;10.98;54.07
77706;BME280;66874;45.274;5.880;2023-02-19T18:44:46;100017.00;;;10.85;54.24
77706;BME280;66874;45.274;5.880;2023-02-19T18:47:12;100008.25;;;10.83;54.36
77706;BME280;66874;45.274;5.880;2023-02-19T18:49:37;100019.63;;;10.82;54.51
77706;BME280;66874;45.274;5.880;2023-02-19T18:52:03;100017.00;;;10.79;54.63
77706;BME280;66874;45.274;5.880;2023-02-19T18:54:30;100020.53;;;10.70;54.52
77706;BME280;66874;45.274;5.880;2023-02-19T18:56:56;100025.81;;;10.61;54.79
77706;BME280;66874;45.274;5.880;2023-02-19T18:59:22;100028.50;;;10.46;55.05
77706;BME280;66874;45.274;5.880;2023-02-19T19:01:48;100033.78;;;10.27;55.41
77706;BME280;66874;45.274;5.880;2023-02-19T19:04:13;100030.25;;;10.24;55.49
77706;BME280;66874;45.274;5.880;2023-02-19T19:06:39;100030.25;;;10.18;55.83
77706;BME280;66874;45.274;5.880;2023-02-19T19:09:05;100040.75;;;10.09;55.69
77706;BME280;66874;45.274;5.880;2023-02-19T19:11:31;100046.88;;;10.00;55.93
77706;BME280;66874;45.274;5.880;2023-02-19T19:13:56;100048.59;;;9.87;56.15
77706;BME280;66874;45.274;5.880;2023-02-19T19:16:27;100056.47;;;9.81;56.47
77706;BME280;66874;45.274;5.880;2023-02-19T19:18:53;100063.41;;;9.82;56.43
77706;BME280;66874;45.274;5.880;2023-02-19T19:21:19;100062.56;;;9.82;56.70
77706;BME280;66874;45.274;5.880;2023-02-19T19:23:45;100068.66;;;9.74;56.67
77706;BME280;66874;45.274;5.880;2023-02-19T19:26:11;100067.78;;;9.72;56.65
77706;BME280;66874;45.274;5.880;2023-02-19T19:28:37;100066.91;;;9.61;56.93
77706;BME280;66874;45.274;5.880;2023-02-19T19:31:12;100065.16;;;9.49;56.91
77706;BME280;66874;45.274;5.880;2023-02-19T19:33:37;100081.66;;;9.38;57.25
77706;BME280;66874;45.274;5.880;2023-02-19T19:36:04;100079.88;;;9.26;57.47
77706;BME280;66874;45.274;5.880;2023-02-19T19:38:29;100082.47;;;9.18;57.58
77706;BME280;66874;45.274;5.880;2023-02-19T19:40:55;100078.13;;;9.14;57.62
77706;BME280;66874;45.274;5.880;2023-02-19T19:43:20;100085.09;;;9.14;57.86
77706;BME280;66874;45.274;5.880;2023-02-19T19:45:46;100085.94;;;9.10;58.06
77706;BME280;66874;45.274;5.880;2023-02-19T19:48:11;100091.16;;;9.08;57.88
77706;BME280;66874;45.274;5.880;2023-02-19T19:50:37;100081.59;;;8.99;58.18
77706;BME280;66874;45.274;5.880;2023-02-19T19:53:02;100079.81;;;8.92;58.46
77706;BME280;66874;45.274;5.880;2023-02-19T19:55:27;100081.50;;;8.87;58.50
77706;BME280;66874;45.274;5.880;2023-02-19T19:57:53;100081.50;;;8.87;58.68
77706;BME280;66874;45.274;5.880;2023-02-19T20:00:19;100077.16;;;8.88;58.55
77706;BME280;66874;45.274;5.880;2023-02-19T20:02:47;100071.09;;;8.90;58.77
77706;BME280;66874;45.274;5.880;2023-02-19T20:05:14;100073.69;;;8.90;58.75
77706;BME280;66874;45.274;5.880;2023-02-19T20:07:41;100079.78;;;8.91;58.94
77706;BME280;66874;45.274;5.880;2023-02-19T20:10:07;100069.31;;;8.88;58.93
77706;BME280;66874;45.274;5.880;2023-02-19T20:12:37;100073.63;;;8.75;58.98
77706;BME280;66874;45.274;5.880;2023-02-19T20:15:02;100070.91;;;8.49;59.43
77706;BME280;66874;45.274;5.880;2023-02-19T20:17:28;100084.78;;;8.45;59.56
77706;BME280;66874;45.274;5.880;2023-02-19T20:19:53;100078.72;;;8.46;59.75
77706;BME280;66874;45.274;5.880;2023-02-19T20:22:19;100083.03;;;8.45;60.12
77706;BME280;66874;45.274;5.880;2023-02-19T20:24:52;100088.25;;;8.39;59.98
77706;BME280;66874;45.274;5.880;2023-02-19T20:27:18;100089.91;;;8.32;60.47
77706;BME280;66874;45.274;5.880;2023-02-19T20:29:44;100091.63;;;8.33;60.57
77706;BME280;66874;45.274;5.880;2023-02-19T20:32:11;100095.94;;;8.30;60.47
77706;BME280;66874;45.274;5.880;2023-02-19T20:34:37;100103.78;;;8.28;60.54
77706;BME280;66874;45.274;5.880;2023-02-19T20:37:02;100114.19;;;8.30;60.82
77706;BME280;66874;45.274;5.880;2023-02-19T20:39:28;100110.69;;;8.23;60.80